createdAt,value
2023-04-11T00:00:18.649Z,16.43
2023-04-11T00:02:47.427Z,17.30
2023-04-11T00:05:16.094Z,17.50
2023-04-11T00:07:44.538Z,19.60
2023-04-11T00:10:12.887Z,18.30
2023-04-11T00:12:41.326Z,18.33
2023-04-11T00:15:10.369Z,17.13
2023-04-11T00:17:42.147Z,18.63
2023-04-11T00:20:11.622Z,18.00
2023-04-11T00:22:40.294Z,18.80
2023-04-11T00:25:09.242Z,18.37
2023-04-11T00:27:37.900Z,20.60
2023-04-11T00:30:08.003Z,19.40
2023-04-11T00:32:36.421Z,21.10
2023-04-11T00:35:06.751Z,19.03
2023-04-11T00:37:36.503Z,19.43
2023-04-11T00:40:07.805Z,18.60
2023-04-11T00:42:36.257Z,20.63
2023-04-11T00:45:04.980Z,17.73
2023-04-11T00:47:34.607Z,18.07
2023-04-11T00:50:03.695Z,18.10
2023-04-11T00:52:33.428Z,17.93
2023-04-11T00:55:04.065Z,17.73
2023-04-11T00:57:32.475Z,17.80
2023-04-11T01:00:03.026Z,16.97
2023-04-11T01:02:32.350Z,17.80
2023-04-11T01:05:01.419Z,17.70
2023-04-11T01:07:32.623Z,18.00
2023-04-11T01:10:03.545Z,18.27
2023-04-11T01:12:33.365Z,18.83
2023-04-11T01:15:01.839Z,16.57
2023-04-11T01:17:30.776Z,17.57
2023-04-11T01:19:59.314Z,17.03
2023-04-11T01:22:29.265Z,16.13
2023-04-11T01:24:59.616Z,16.10
2023-04-11T01:27:28.056Z,16.20
2023-04-11T01:29:56.388Z,16.23
2023-04-11T01:32:26.375Z,15.97
2023-04-11T01:34:57.029Z,15.80
2023-04-11T01:37:26.135Z,15.23
2023-04-11T01:39:54.645Z,14.47
2023-04-11T01:42:27.186Z,16.70
2023-04-11T01:44:56.522Z,16.10
2023-04-11T01:47:25.064Z,15.40
2023-04-11T01:49:56.046Z,16.23
2023-04-11T01:52:26.501Z,16.57
2023-04-11T01:54:54.961Z,18.23
2023-04-11T01:57:24.722Z,16.57
2023-04-11T01:59:53.102Z,15.93
2023-04-11T02:02:21.640Z,17.53
2023-04-11T02:04:50.063Z,16.10
2023-04-11T02:07:18.525Z,15.00
2023-04-11T02:09:49.609Z,16.23
2023-04-11T02:12:18.024Z,16.80
2023-04-11T02:14:49.300Z,17.43
2023-04-11T02:17:20.666Z,16.53
2023-04-11T02:19:49.451Z,17.50
2023-04-11T02:22:17.891Z,18.37
2023-04-11T02:24:47.648Z,18.57
2023-04-11T02:27:16.016Z,19.80
2023-04-11T02:29:44.392Z,18.67
2023-04-11T02:32:14.321Z,16.90
2023-04-11T02:34:42.794Z,17.20
2023-04-11T02:37:11.333Z,16.60
2023-04-11T02:39:39.689Z,16.63
2023-04-11T02:42:07.999Z,20.10
2023-04-11T02:44:36.389Z,19.47
2023-04-11T02:47:05.736Z,20.20
2023-04-11T02:49:35.730Z,19.40
2023-04-11T02:52:06.462Z,19.07
2023-04-11T02:54:34.830Z,18.23
2023-04-11T02:57:04.455Z,18.47
2023-04-11T02:59:32.904Z,19.53
2023-04-11T03:02:03.616Z,17.70
2023-04-11T03:04:32.727Z,17.07
2023-04-11T03:07:12.642Z,18.53
2023-04-11T03:09:41.165Z,19.57
2023-04-11T03:12:09.566Z,20.60
2023-04-11T03:14:47.814Z,19.00
2023-04-11T03:17:16.219Z,20.03
2023-04-11T03:19:44.541Z,20.77
2023-04-11T03:22:14.562Z,22.63
2023-04-11T03:24:43.110Z,26.40
2023-04-11T03:27:11.497Z,26.30
2023-04-11T03:29:43.273Z,23.80
2023-04-11T03:32:19.271Z,25.33
2023-04-11T03:34:47.746Z,25.53
2023-04-11T03:37:17.763Z,22.80
2023-04-11T03:39:46.255Z,25.50
2023-04-11T03:42:14.706Z,23.87
2023-04-11T03:44:43.397Z,23.23
2023-04-11T03:47:11.806Z,22.77
2023-04-11T03:49:44.288Z,24.70
2023-04-11T03:52:17.601Z,27.10
2023-04-11T03:54:48.759Z,24.37
2023-04-11T03:57:18.584Z,25.00
2023-04-11T03:59:47.984Z,25.70
2023-04-11T04:02:17.367Z,23.03
2023-04-11T04:04:55.207Z,20.90
2023-04-11T04:07:32.081Z,22.57
2023-04-11T04:10:26.653Z,20.50
2023-04-11T04:12:56.382Z,21.50
2023-04-11T04:15:26.906Z,20.10
2023-04-11T04:17:56.561Z,19.40
2023-04-11T04:21:00.245Z,21.27
2023-04-11T04:23:32.547Z,21.30
2023-04-11T04:26:25.304Z,19.13
2023-04-11T04:29:10.277Z,19.43
2023-04-11T04:31:53.348Z,18.70
2023-04-11T04:34:29.966Z,18.97
2023-04-11T04:37:02.200Z,19.70
2023-04-11T04:39:42.181Z,21.27
2023-04-11T04:42:14.204Z,19.40
2023-04-11T04:44:42.813Z,20.30
2023-04-11T04:47:22.546Z,18.60
2023-04-11T04:49:55.344Z,18.90
2023-04-11T04:52:25.787Z,17.03
2023-04-11T04:54:58.275Z,18.00
2023-04-11T04:57:29.152Z,22.03
2023-04-11T04:59:58.285Z,24.40
2023-04-11T05:02:28.030Z,21.20
2023-04-11T05:05:04.305Z,20.80
2023-04-11T05:07:34.473Z,20.03
2023-04-11T05:10:04.480Z,18.70
2023-04-11T05:12:34.116Z,19.63
2023-04-11T05:15:11.723Z,20.47
2023-04-11T05:17:42.873Z,20.40
2023-04-11T05:20:13.666Z,23.80
2023-04-11T05:22:43.693Z,22.53
2023-04-11T05:25:13.498Z,20.00
2023-04-11T05:27:43.721Z,21.63
2023-04-11T05:30:13.073Z,22.27
2023-04-11T05:32:43.090Z,22.77
2023-04-11T05:35:11.955Z,21.73
2023-04-11T05:37:54.037Z,20.43
2023-04-11T05:40:23.852Z,20.20
2023-04-11T05:42:52.492Z,23.20
2023-04-11T05:45:20.945Z,22.27
2023-04-11T05:47:50.745Z,21.57
2023-04-11T05:50:19.111Z,24.13
2023-04-11T05:52:48.676Z,24.97
2023-04-11T05:55:18.475Z,24.10
2023-04-11T05:57:48.248Z,22.63
2023-04-11T06:00:17.655Z,22.77
2023-04-11T06:02:46.590Z,23.83
2023-04-11T06:05:16.790Z,25.60
2023-04-11T06:07:46.585Z,24.83
2023-04-11T06:10:15.129Z,27.57
2023-04-11T06:12:43.593Z,26.17
2023-04-11T06:15:14.044Z,25.93
2023-04-11T06:17:42.583Z,32.90
2023-04-11T06:20:11.500Z,28.13
2023-04-11T06:22:40.457Z,26.63
2023-04-11T06:25:09.348Z,28.33
2023-04-11T06:27:38.121Z,28.60
2023-04-11T06:30:07.445Z,28.47
2023-04-11T06:32:37.311Z,25.90
2023-04-11T06:35:06.914Z,27.40
2023-04-11T06:37:35.372Z,27.87
2023-04-11T06:40:05.596Z,27.33
2023-04-11T06:42:34.160Z,27.67
2023-04-11T06:45:02.837Z,28.03
2023-04-11T06:47:31.272Z,29.53
2023-04-11T06:50:01.115Z,27.50
2023-04-11T06:52:30.388Z,29.43
2023-04-11T06:54:58.847Z,28.33
2023-04-11T06:57:27.243Z,27.23
2023-04-11T06:59:56.040Z,25.80
2023-04-11T07:02:26.080Z,26.17
2023-04-11T07:04:54.791Z,24.90
2023-04-11T07:07:24.500Z,25.40
2023-04-11T07:09:52.886Z,30.37
2023-04-11T07:12:21.354Z,30.43
2023-04-11T07:14:49.801Z,32.37
2023-04-11T07:17:18.348Z,29.13
2023-04-11T07:19:46.858Z,30.60
2023-04-11T07:22:15.708Z,27.83
2023-04-11T07:24:46.876Z,26.83
2023-04-11T07:27:15.890Z,26.73
2023-04-11T07:29:44.313Z,26.57
2023-04-11T07:32:12.694Z,25.17
2023-04-11T07:34:41.438Z,29.33
2023-04-11T07:37:09.870Z,28.17
2023-04-11T07:39:38.323Z,26.67
2023-04-11T07:42:08.612Z,31.87
2023-04-11T07:44:37.024Z,28.93
2023-04-11T07:47:05.537Z,27.93
2023-04-11T07:49:33.937Z,28.20
2023-04-11T07:52:02.532Z,27.90
2023-04-11T07:54:30.939Z,28.47
2023-04-11T07:56:59.471Z,30.73
2023-04-11T07:59:29.195Z,34.53
2023-04-11T08:02:02.160Z,28.37
2023-04-11T08:04:33.794Z,34.43
2023-04-11T08:07:02.445Z,29.27
2023-04-11T08:09:30.883Z,26.50
2023-04-11T08:11:59.507Z,26.03
2023-04-11T08:14:29.350Z,26.30
2023-04-11T08:16:57.817Z,25.17
2023-04-11T08:19:26.446Z,26.43
2023-04-11T08:21:55.490Z,27.97
2023-04-11T08:24:23.989Z,26.10
2023-04-11T08:26:52.443Z,32.57
2023-04-11T08:29:20.947Z,27.80
2023-04-11T08:31:50.901Z,25.40
2023-04-11T08:34:19.275Z,23.53
2023-04-11T08:36:47.742Z,26.63
2023-04-11T08:39:16.125Z,26.40
2023-04-11T08:41:44.711Z,25.93
2023-04-11T08:44:13.327Z,26.93
2023-04-11T08:46:44.305Z,25.43
2023-04-11T08:49:14.158Z,25.87
2023-04-11T08:51:45.026Z,22.53
2023-04-11T08:54:14.133Z,23.43
2023-04-11T08:56:44.262Z,28.47
2023-04-11T08:59:12.791Z,23.17
2023-04-11T09:01:41.256Z,20.97
2023-04-11T09:04:11.512Z,23.00
2023-04-11T09:06:42.852Z,21.35
2023-04-11T09:09:29.953Z,25.40
2023-04-11T09:11:58.953Z,21.83
2023-04-11T09:14:28.343Z,23.55
2023-04-11T09:16:58.975Z,20.30
2023-04-11T09:19:28.624Z,18.88
2023-04-11T09:22:00.587Z,21.13
2023-04-11T09:24:30.364Z,21.83
2023-04-11T09:27:12.983Z,24.90
2023-04-11T09:29:42.866Z,24.30
2023-04-11T09:32:30.176Z,23.03
2023-04-11T09:35:12.833Z,20.50
2023-04-11T09:37:47.656Z,24.10
2023-04-11T09:40:17.541Z,17.48
2023-04-11T09:42:48.008Z,24.23
2023-04-11T09:45:21.568Z,24.27
2023-04-11T09:47:52.995Z,18.85
2023-04-11T09:50:21.674Z,21.13
2023-04-11T09:52:52.879Z,23.77
2023-04-11T09:55:22.989Z,18.40
2023-04-11T09:57:52.601Z,18.48
2023-04-11T10:00:22.896Z,19.27
2023-04-11T10:02:54.050Z,18.98
2023-04-11T10:05:27.579Z,22.48
2023-04-11T10:08:04.776Z,21.08
2023-04-11T10:10:33.822Z,21.42
2023-04-11T10:13:02.237Z,24.10
2023-04-11T10:15:31.060Z,21.27
2023-04-11T10:18:10.389Z,18.50
2023-04-11T10:20:50.466Z,18.27
2023-04-11T10:23:20.355Z,23.38
2023-04-11T10:25:53.643Z,19.42
2023-04-11T10:28:33.145Z,21.38
2023-04-11T10:31:04.661Z,17.67
2023-04-11T10:33:34.676Z,20.05
2023-04-11T10:36:05.622Z,19.77
2023-04-11T10:38:49.734Z,18.90
2023-04-11T10:41:31.622Z,20.73
2023-04-11T10:44:21.295Z,20.25
2023-04-11T10:46:52.059Z,20.98
2023-04-11T10:49:38.544Z,21.77
2023-04-11T10:52:21.967Z,17.98
2023-04-11T10:54:52.962Z,18.73
2023-04-11T10:57:23.147Z,19.50
2023-04-11T11:00:01.736Z,18.65
2023-04-11T11:02:40.329Z,18.55
2023-04-11T11:05:20.606Z,16.83
2023-04-11T11:07:53.619Z,19.40
2023-04-11T11:10:43.881Z,17.40
2023-04-11T11:13:12.402Z,18.13
2023-04-11T11:15:47.444Z,16.53
2023-04-11T11:18:17.256Z,15.40
2023-04-11T11:20:45.736Z,16.63
2023-04-11T11:23:14.151Z,16.60
2023-04-11T11:25:53.841Z,18.07
2023-04-11T11:28:22.759Z,17.95
2023-04-11T11:30:54.985Z,16.88
2023-04-11T11:33:26.740Z,14.90
2023-04-11T11:35:58.087Z,15.73
2023-04-11T11:38:28.716Z,15.83
2023-04-11T11:40:59.622Z,16.30
2023-04-11T11:43:28.850Z,16.97
2023-04-11T11:46:11.436Z,16.90
2023-04-11T11:48:40.221Z,16.20
2023-04-11T11:51:08.710Z,16.00
2023-04-11T11:53:37.230Z,16.07
2023-04-11T11:56:17.228Z,17.60
2023-04-11T11:58:46.335Z,16.73
2023-04-11T12:01:17.295Z,17.20
2023-04-11T12:03:51.538Z,17.53
2023-04-11T12:06:20.654Z,16.97
2023-04-11T12:08:54.138Z,17.37
2023-04-11T12:11:25.322Z,17.23
2023-04-11T12:13:55.010Z,16.17
2023-04-11T12:16:24.434Z,16.77
2023-04-11T12:18:53.023Z,14.37
2023-04-11T12:21:21.469Z,14.50
2023-04-11T12:23:49.894Z,14.70
2023-04-11T12:26:21.079Z,15.73
2023-04-11T12:28:51.351Z,15.93
2023-04-11T12:31:20.693Z,16.13
2023-04-11T12:33:49.346Z,15.83
2023-04-11T12:36:17.783Z,16.47
2023-04-11T12:38:46.603Z,16.80
2023-04-11T12:41:31.617Z,15.10
2023-04-11T12:44:04.141Z,16.00
2023-04-11T12:46:33.785Z,15.40
2023-04-11T12:49:02.381Z,15.40
2023-04-11T12:51:31.482Z,16.13
2023-04-11T12:54:00.038Z,15.97
2023-04-11T12:56:28.585Z,16.00
2023-04-11T12:58:57.258Z,18.17
2023-04-11T13:01:27.428Z,18.33
2023-04-11T13:03:58.110Z,18.70
2023-04-11T13:06:26.633Z,17.73
2023-04-11T13:08:56.802Z,18.07
2023-04-11T13:11:25.672Z,19.63
2023-04-11T13:13:54.325Z,18.57
2023-04-11T13:16:22.834Z,19.10
2023-04-11T13:18:52.669Z,19.27
2023-04-11T13:21:21.196Z,18.50
2023-04-11T13:23:49.505Z,19.13
2023-04-11T13:26:17.912Z,19.10
2023-04-11T13:28:46.456Z,20.27
2023-04-11T13:31:14.842Z,20.23
2023-04-11T13:33:44.958Z,18.53
2023-04-11T13:36:14.744Z,19.33
2023-04-11T13:38:43.276Z,19.77
2023-04-11T13:41:13.191Z,20.30
2023-04-11T13:43:42.481Z,20.80
2023-04-11T13:46:12.219Z,20.50
2023-04-11T13:48:40.679Z,19.67
2023-04-11T13:51:09.592Z,19.97
2023-04-11T13:53:39.461Z,19.33
2023-04-11T13:56:08.992Z,19.53
2023-04-11T13:58:38.303Z,19.23
2023-04-11T14:01:07.474Z,18.30
2023-04-11T14:03:36.072Z,18.40
2023-04-11T14:06:04.896Z,16.90
2023-04-11T14:08:33.275Z,17.20
2023-04-11T14:11:03.454Z,16.17
2023-04-11T14:13:32.015Z,17.73
2023-04-11T14:16:08.836Z,17.77
2023-04-11T14:18:38.237Z,17.27
2023-04-11T14:21:08.248Z,17.87
2023-04-11T14:23:36.983Z,18.30
2023-04-11T14:26:07.163Z,19.30
2023-04-11T14:28:36.191Z,19.23
2023-04-11T14:31:04.635Z,19.47
2023-04-11T14:33:33.152Z,19.67
2023-04-11T14:36:01.652Z,20.60
2023-04-11T14:38:30.247Z,22.27
2023-04-11T14:40:58.684Z,21.37
2023-04-11T14:43:28.405Z,21.00
2023-04-11T14:45:57.863Z,21.77
2023-04-11T14:48:28.850Z,21.43
2023-04-11T14:50:57.313Z,21.47
2023-04-11T14:53:26.177Z,21.30
2023-04-11T14:55:54.616Z,21.80
2023-04-11T14:58:23.071Z,21.40
2023-04-11T15:00:52.853Z,20.77
2023-04-11T15:03:21.718Z,20.23
2023-04-11T15:05:50.711Z,19.93
2023-04-11T15:08:19.067Z,21.03
2023-04-11T15:10:49.624Z,20.80
2023-04-11T15:13:18.026Z,21.20
2023-04-11T15:15:46.576Z,21.37
2023-04-11T15:18:24.601Z,20.87
2023-04-11T15:20:53.651Z,20.27
2023-04-11T15:23:22.899Z,20.10
2023-04-11T15:25:54.480Z,20.33
2023-04-11T15:28:23.279Z,21.23
2023-04-11T15:30:52.972Z,22.37
2023-04-11T15:33:24.443Z,20.43
2023-04-11T15:35:54.437Z,19.67
2023-04-11T15:38:23.281Z,20.77
2023-04-11T15:40:52.562Z,20.40
2023-04-11T15:43:21.201Z,19.63
2023-04-11T15:45:49.992Z,20.17
2023-04-11T15:48:18.623Z,20.67
2023-04-11T15:50:48.394Z,19.63
2023-04-11T15:53:16.904Z,19.10
2023-04-11T15:55:47.228Z,19.57
2023-04-11T15:58:15.770Z,19.53
2023-04-11T16:00:44.807Z,19.53
2023-04-11T16:03:16.900Z,18.93
2023-04-11T16:05:45.785Z,18.30
2023-04-11T16:08:15.969Z,18.70
2023-04-11T16:10:44.462Z,18.07
2023-04-11T16:13:12.974Z,17.67
2023-04-11T16:15:41.350Z,16.27
2023-04-11T16:18:09.794Z,18.00
2023-04-11T16:20:38.326Z,21.27
2023-04-11T16:23:06.769Z,19.17
2023-04-11T16:25:36.543Z,17.83
2023-04-11T16:28:05.205Z,20.30
2023-04-11T16:30:33.657Z,20.37
2023-04-11T16:33:02.225Z,21.70
2023-04-11T16:35:30.731Z,20.53
2023-04-11T16:37:59.140Z,20.77
2023-04-11T16:40:28.048Z,22.90
2023-04-11T16:42:57.718Z,23.07
2023-04-11T16:45:26.315Z,21.40
2023-04-11T16:47:54.724Z,20.97
2023-04-11T16:50:23.347Z,21.47
2023-04-11T16:52:51.863Z,22.23
2023-04-11T16:55:20.307Z,22.93
2023-04-11T16:57:48.742Z,22.47
2023-04-11T17:00:20.711Z,22.57
2023-04-11T17:02:49.243Z,21.13
2023-04-11T17:05:18.999Z,20.97
2023-04-11T17:07:47.569Z,20.87
2023-04-11T17:10:16.205Z,20.50
2023-04-11T17:12:44.699Z,19.03
2023-04-11T17:15:13.442Z,20.60
2023-04-11T17:17:44.427Z,20.53
2023-04-11T17:20:13.310Z,20.20
2023-04-11T17:22:44.435Z,20.43
2023-04-11T17:25:13.198Z,20.13
2023-04-11T17:27:42.144Z,20.33
2023-04-11T17:30:12.401Z,18.77
2023-04-11T17:32:42.427Z,18.40
2023-04-11T17:35:12.615Z,19.47
2023-04-11T17:37:41.148Z,19.07
2023-04-11T17:40:14.535Z,20.20
2023-04-11T17:42:46.018Z,19.27
2023-04-11T17:45:18.123Z,19.10
2023-04-11T17:47:48.756Z,18.87
2023-04-11T17:50:18.318Z,19.00
2023-04-11T17:52:47.627Z,20.17
2023-04-11T17:55:17.390Z,19.77
2023-04-11T17:57:47.444Z,17.77
2023-04-11T18:00:19.642Z,19.13
2023-04-11T18:02:52.800Z,20.10
2023-04-11T18:05:25.181Z,20.00
2023-04-11T18:07:56.722Z,21.70
2023-04-11T18:10:26.229Z,21.67
2023-04-11T18:12:56.289Z,22.47
2023-04-11T18:15:25.325Z,23.57
2023-04-11T18:17:55.631Z,22.57
2023-04-11T18:20:24.226Z,24.03
2023-04-11T18:22:56.515Z,22.80
2023-04-11T18:25:25.608Z,21.53
2023-04-11T18:27:54.060Z,24.10
2023-04-11T18:30:22.688Z,22.03
2023-04-11T18:32:53.874Z,21.77
2023-04-11T18:35:25.126Z,20.13
2023-04-11T18:37:54.187Z,21.40
2023-04-11T18:40:22.647Z,20.00
2023-04-11T18:42:53.213Z,19.27
2023-04-11T18:45:22.483Z,18.40
2023-04-11T18:47:51.483Z,18.73
2023-04-11T18:50:20.408Z,20.27
2023-04-11T18:52:54.010Z,19.03
2023-04-11T18:55:25.094Z,18.77
2023-04-11T18:57:57.107Z,18.47
2023-04-11T19:00:26.620Z,18.83
2023-04-11T19:02:55.193Z,17.00
2023-04-11T19:05:25.485Z,19.10
2023-04-11T19:07:56.175Z,19.23
2023-04-11T19:10:24.763Z,19.17
2023-04-11T19:12:53.138Z,18.60
2023-04-11T19:15:21.656Z,17.80
2023-04-11T19:17:50.657Z,16.93
2023-04-11T19:20:20.216Z,16.13
2023-04-11T19:22:48.566Z,16.63
2023-04-11T19:25:18.322Z,17.07
2023-04-11T19:27:47.208Z,14.63
2023-04-11T19:30:15.818Z,14.17
2023-04-11T19:32:46.137Z,14.87
2023-04-11T19:35:14.963Z,14.40
2023-04-11T19:37:43.386Z,13.97
2023-04-11T19:40:12.480Z,13.70
2023-04-11T19:42:42.438Z,13.77
2023-04-11T19:45:11.888Z,12.67
2023-04-11T19:47:41.360Z,14.23
2023-04-11T19:50:13.034Z,13.03
2023-04-11T19:52:42.175Z,13.27
2023-04-11T19:55:11.752Z,13.23
2023-04-11T19:57:43.995Z,12.97
2023-04-11T20:00:14.426Z,12.57
2023-04-11T20:02:48.147Z,12.33
2023-04-11T20:05:19.025Z,12.37
2023-04-11T20:07:47.949Z,12.73
2023-04-11T20:10:17.110Z,13.23
2023-04-11T20:12:46.868Z,12.60
2023-04-11T20:15:16.002Z,12.57
2023-04-11T20:17:46.341Z,12.80
2023-04-11T20:20:15.415Z,12.37
2023-04-11T20:22:45.765Z,11.57
2023-04-11T20:25:14.342Z,12.70
2023-04-11T20:27:43.540Z,12.50
2023-04-11T20:30:15.661Z,12.80
2023-04-11T20:32:45.354Z,12.63
2023-04-11T20:35:13.964Z,12.07
2023-04-11T20:37:43.683Z,12.90
2023-04-11T20:40:14.381Z,13.57
2023-04-11T20:42:45.473Z,13.00
2023-04-11T20:45:17.147Z,12.43
2023-04-11T20:47:47.689Z,13.37
2023-04-11T20:50:17.685Z,12.40
2023-04-11T20:52:47.948Z,12.80
2023-04-11T20:55:16.427Z,11.60
2023-04-11T20:57:45.174Z,11.80
2023-04-11T21:00:17.161Z,11.67
2023-04-11T21:02:47.778Z,11.97
2023-04-11T21:05:18.133Z,13.10
2023-04-11T21:07:46.958Z,13.80
2023-04-11T21:10:15.767Z,13.70
2023-04-11T21:12:51.393Z,14.23
2023-04-11T21:15:22.264Z,14.30
2023-04-11T21:17:52.462Z,13.93
2023-04-11T21:20:22.460Z,14.73
2023-04-11T21:22:54.229Z,13.90
2023-04-11T21:25:23.448Z,13.97
2023-04-11T21:27:52.089Z,13.17
2023-04-11T21:30:21.924Z,13.03
2023-04-11T21:32:50.629Z,12.17
2023-04-11T21:35:19.103Z,11.90
2023-04-11T21:37:49.242Z,10.90
2023-04-11T21:40:18.157Z,11.23
2023-04-11T21:42:46.601Z,11.07
2023-04-11T21:45:15.123Z,11.40
2023-04-11T21:47:44.827Z,10.10
2023-04-11T21:50:13.444Z,10.43
2023-04-11T21:52:41.940Z,10.47
2023-04-11T21:55:11.551Z,10.93
2023-04-11T21:57:40.165Z,10.73
2023-04-11T22:00:11.147Z,10.50
2023-04-11T22:02:44.099Z,9.87
2023-04-11T22:05:13.062Z,9.80
2023-04-11T22:07:50.356Z,10.40
2023-04-11T22:10:23.336Z,10.37
2023-04-11T22:12:54.605Z,9.70
2023-04-11T22:15:24.504Z,10.77
2023-04-11T22:17:56.605Z,10.27
2023-04-11T22:20:25.204Z,10.70
2023-04-11T22:22:53.588Z,10.00
2023-04-11T22:25:22.661Z,9.93
2023-04-11T22:27:54.720Z,10.53
2023-04-11T22:30:24.625Z,10.63
2023-04-11T22:32:55.783Z,10.15
2023-04-11T22:35:26.161Z,10.20
2023-04-11T22:37:57.264Z,9.87
2023-04-11T22:40:25.885Z,10.30
2023-04-11T22:42:55.202Z,10.20
2023-04-11T22:45:24.584Z,9.83
2023-04-11T22:47:57.168Z,10.60
2023-04-11T22:50:25.681Z,9.97
2023-04-11T22:52:54.772Z,9.80
2023-04-11T22:55:24.818Z,10.33
2023-04-11T22:57:53.305Z,9.50
2023-04-11T23:00:23.941Z,9.60
2023-04-11T23:02:52.586Z,10.10
2023-04-11T23:05:22.458Z,9.43
2023-04-11T23:07:51.181Z,9.47
2023-04-11T23:10:19.719Z,10.00
2023-04-11T23:12:49.654Z,9.47
2023-04-11T23:15:19.584Z,9.77
2023-04-11T23:17:47.984Z,9.90
2023-04-11T23:20:17.776Z,10.30
2023-04-11T23:22:47.599Z,9.40
2023-04-11T23:25:17.069Z,9.67
2023-04-11T23:27:46.398Z,9.87
2023-04-11T23:30:17.838Z,9.70
2023-04-11T23:32:47.167Z,9.50
2023-04-11T23:35:17.150Z,9.47
2023-04-11T23:37:47.343Z,9.77
2023-04-11T23:40:15.964Z,9.60
2023-04-11T23:42:44.402Z,8.97
2023-04-11T23:45:14.950Z,9.30
2023-04-11T23:47:43.429Z,10.07
2023-04-11T23:50:12.539Z,9.83
2023-04-11T23:52:40.968Z,9.57
2023-04-11T23:55:12.549Z,9.57
2023-04-11T23:57:41.338Z,10.53
